createdAt,value
2019-03-09T00:00:51.167Z,11.45
2019-03-09T00:03:22.912Z,12.85
2019-03-09T00:05:54.643Z,12.50
2019-03-09T00:08:26.318Z,11.73
2019-03-09T00:10:58.129Z,11.10
2019-03-09T00:13:29.596Z,11.40
2019-03-09T00:16:01.251Z,11.50
2019-03-09T00:18:32.577Z,10.63
2019-03-09T00:21:03.828Z,10.80
2019-03-09T00:23:59.627Z,12.17
2019-03-09T00:26:44.140Z,11.93
2019-03-09T00:29:30.405Z,11.00
2019-03-09T00:32:05.242Z,11.35
2019-03-09T00:34:36.528Z,11.43
2019-03-09T00:37:07.629Z,11.53
2019-03-09T00:39:38.881Z,12.50
2019-03-09T00:42:10.504Z,13.13
2019-03-09T00:44:41.923Z,13.78
2019-03-09T00:47:13.706Z,12.43
2019-03-09T00:49:44.938Z,12.93
2019-03-09T00:52:16.642Z,15.00
2019-03-09T00:54:48.360Z,13.75
2019-03-09T00:57:19.711Z,12.90
2019-03-09T00:59:56.146Z,13.08
2019-03-09T01:02:27.658Z,13.05
2019-03-09T01:04:58.889Z,12.30
2019-03-09T01:07:30.347Z,11.10
2019-03-09T01:10:01.709Z,11.85
2019-03-09T01:12:34.582Z,11.45
2019-03-09T01:15:07.447Z,10.93
2019-03-09T01:17:39.791Z,11.35
2019-03-09T01:20:13.438Z,10.15
2019-03-09T01:22:44.903Z,12.73
2019-03-09T01:25:16.412Z,14.73
2019-03-09T01:27:47.989Z,12.90
2019-03-09T01:30:19.522Z,13.28
2019-03-09T01:32:51.229Z,11.50
2019-03-09T01:35:22.819Z,11.55
2019-03-09T01:37:54.420Z,11.25
2019-03-09T01:40:25.973Z,11.70
2019-03-09T01:42:57.360Z,11.10
2019-03-09T01:45:29.147Z,10.82
2019-03-09T01:48:01.095Z,10.45
2019-03-09T01:50:33.707Z,9.43
2019-03-09T01:53:05.303Z,10.18
2019-03-09T01:55:36.819Z,9.60
2019-03-09T01:58:08.351Z,10.23
2019-03-09T02:00:40.082Z,10.08
2019-03-09T02:03:11.546Z,9.10
2019-03-09T02:05:43.020Z,11.30
2019-03-09T02:08:14.359Z,10.70
2019-03-09T02:10:45.724Z,10.08
2019-03-09T02:13:17.533Z,10.25
2019-03-09T02:15:49.362Z,10.70
2019-03-09T02:18:21.024Z,10.95
2019-03-09T02:20:52.548Z,11.70
2019-03-09T02:23:24.148Z,11.88
2019-03-09T02:25:55.708Z,12.40
2019-03-09T02:28:27.152Z,11.35
2019-03-09T02:30:58.413Z,10.90
2019-03-09T02:33:30.070Z,11.75
2019-03-09T02:36:01.543Z,11.20
2019-03-09T02:38:38.539Z,11.15
2019-03-09T02:41:09.738Z,11.35
2019-03-09T02:43:41.359Z,11.12
2019-03-09T02:46:13.940Z,11.18
2019-03-09T02:48:45.351Z,11.18
2019-03-09T02:51:17.043Z,11.45
2019-03-09T02:53:48.567Z,12.30
2019-03-09T02:56:20.139Z,11.68
2019-03-09T02:58:51.693Z,11.45
2019-03-09T03:01:48.360Z,11.65
2019-03-09T03:04:19.702Z,11.38
2019-03-09T03:06:51.385Z,11.35
2019-03-09T03:09:22.924Z,10.45
2019-03-09T03:11:54.429Z,10.95
2019-03-09T03:14:25.964Z,11.45
2019-03-09T03:16:57.616Z,10.93
2019-03-09T03:19:29.158Z,10.98
2019-03-09T03:22:00.768Z,10.48
2019-03-09T03:24:32.158Z,10.70
2019-03-09T03:27:03.737Z,11.05
2019-03-09T03:29:35.086Z,9.83
2019-03-09T03:32:06.550Z,10.30
2019-03-09T03:34:38.122Z,10.88
2019-03-09T03:37:09.680Z,10.80
2019-03-09T03:39:41.232Z,11.25
2019-03-09T03:42:13.740Z,10.85
2019-03-09T03:44:45.506Z,10.58
2019-03-09T03:47:18.073Z,10.93
2019-03-09T03:49:50.666Z,11.78
2019-03-09T03:52:22.339Z,12.63
2019-03-09T03:54:53.941Z,11.83
2019-03-09T03:57:25.578Z,11.60
2019-03-09T03:59:57.152Z,11.70
2019-03-09T04:02:28.565Z,12.00
2019-03-09T04:05:01.026Z,11.65
2019-03-09T04:07:32.658Z,11.40
2019-03-09T04:10:04.536Z,11.70
2019-03-09T04:12:35.968Z,12.43
2019-03-09T04:15:07.875Z,11.63
2019-03-09T04:17:39.189Z,13.90
2019-03-09T04:20:11.537Z,13.88
2019-03-09T04:22:43.105Z,13.85
2019-03-09T04:25:14.714Z,13.10
2019-03-09T04:27:46.135Z,13.60
2019-03-09T04:30:17.363Z,13.32
2019-03-09T04:32:48.698Z,12.78
2019-03-09T04:35:20.161Z,12.95
2019-03-09T04:37:51.429Z,13.95
2019-03-09T04:40:22.666Z,13.80
2019-03-09T04:42:54.422Z,14.23
2019-03-09T04:45:26.063Z,13.30
2019-03-09T04:47:57.556Z,14.23
2019-03-09T04:50:28.843Z,13.45
2019-03-09T04:53:00.240Z,14.40
2019-03-09T04:55:31.523Z,13.28
2019-03-09T04:58:03.000Z,13.90
2019-03-09T05:00:34.315Z,14.70
2019-03-09T05:03:05.924Z,14.43
2019-03-09T05:05:37.441Z,14.58
2019-03-09T05:08:15.588Z,14.58
2019-03-09T05:10:58.641Z,16.20
2019-03-09T05:13:36.092Z,15.45
2019-03-09T05:16:07.552Z,13.75
2019-03-09T05:18:39.142Z,12.95
2019-03-09T05:21:10.656Z,13.18
2019-03-09T05:23:42.337Z,10.98
2019-03-09T05:26:13.980Z,11.45
2019-03-09T05:28:45.437Z,11.50
2019-03-09T05:31:17.008Z,11.08
2019-03-09T05:33:48.277Z,11.12
2019-03-09T05:36:19.816Z,11.30
2019-03-09T05:38:51.388Z,11.78
2019-03-09T05:41:27.935Z,10.38
2019-03-09T05:43:56.270Z,10.80
2019-03-09T05:46:28.906Z,12.82
2019-03-09T05:49:00.488Z,16.32
2019-03-09T05:51:32.112Z,16.95
2019-03-09T05:54:03.887Z,16.85
2019-03-09T05:56:35.448Z,17.45
2019-03-09T05:59:08.535Z,17.82
2019-03-09T06:01:39.796Z,18.37
2019-03-09T06:04:11.058Z,16.35
2019-03-09T06:06:42.489Z,17.42
2019-03-09T06:09:14.079Z,18.00
2019-03-09T06:11:45.584Z,17.60
2019-03-09T06:14:17.189Z,16.67
2019-03-09T06:16:48.922Z,17.40
2019-03-09T06:19:20.351Z,16.37
2019-03-09T06:21:51.953Z,17.02
2019-03-09T06:24:23.813Z,16.62
2019-03-09T06:26:55.433Z,15.98
2019-03-09T06:29:26.796Z,16.40
2019-03-09T06:32:33.438Z,16.15
2019-03-09T06:35:04.954Z,15.72
2019-03-09T06:37:36.664Z,15.30
2019-03-09T06:40:08.117Z,15.13
2019-03-09T06:42:45.258Z,14.85
2019-03-09T06:45:17.716Z,13.57
2019-03-09T06:47:49.147Z,14.30
2019-03-09T06:50:21.245Z,13.50
2019-03-09T06:52:52.360Z,14.40
2019-03-09T06:55:23.722Z,17.10
2019-03-09T06:57:55.108Z,15.97
2019-03-09T07:00:37.678Z,15.37
2019-03-09T07:03:10.444Z,14.07
2019-03-09T07:05:41.578Z,14.87
2019-03-09T07:08:12.599Z,15.63
2019-03-09T07:10:43.496Z,18.30
2019-03-09T07:13:14.656Z,19.13
2019-03-09T07:15:46.834Z,15.57
2019-03-09T07:18:19.797Z,12.83
2019-03-09T07:20:50.842Z,12.67
2019-03-09T07:23:22.018Z,10.50
2019-03-09T07:25:53.313Z,10.83
2019-03-09T07:28:24.400Z,9.40
2019-03-09T07:30:57.952Z,8.87
2019-03-09T07:33:29.352Z,7.23
2019-03-09T07:36:00.853Z,7.83
2019-03-09T07:38:32.022Z,7.83
2019-03-09T07:41:04.431Z,6.60
2019-03-09T07:43:35.660Z,7.00
2019-03-09T07:46:06.789Z,6.87
2019-03-09T07:48:37.798Z,6.63
2019-03-09T07:51:09.170Z,7.07
2019-03-09T07:53:40.232Z,6.97
2019-03-09T07:56:11.213Z,6.20
2019-03-09T07:58:42.422Z,5.33
2019-03-09T08:01:13.635Z,5.47
2019-03-09T08:03:44.735Z,5.27
2019-03-09T08:06:15.957Z,6.10
2019-03-09T08:08:47.158Z,5.80
2019-03-09T08:11:18.480Z,5.97
2019-03-09T08:13:49.548Z,4.93
2019-03-09T08:16:20.586Z,5.47
2019-03-09T08:18:53.014Z,5.83
2019-03-09T08:21:24.393Z,4.77
2019-03-09T08:23:56.538Z,4.53
2019-03-09T08:26:27.973Z,4.90
2019-03-09T08:28:59.154Z,4.23
2019-03-09T08:31:30.582Z,4.40
2019-03-09T08:34:01.921Z,3.77
2019-03-09T08:36:34.952Z,3.83
2019-03-09T08:39:07.525Z,3.77
2019-03-09T08:41:39.551Z,3.43
2019-03-09T08:44:11.046Z,3.53
2019-03-09T08:46:42.662Z,3.93
2019-03-09T08:49:14.084Z,3.20
2019-03-09T08:51:45.272Z,3.10
2019-03-09T08:54:16.638Z,3.13
2019-03-09T08:56:48.066Z,2.93
2019-03-09T08:59:19.389Z,3.97
2019-03-09T09:01:50.876Z,3.53
2019-03-09T09:04:21.849Z,3.60
2019-03-09T09:06:53.246Z,3.23
2019-03-09T09:09:24.624Z,3.30
2019-03-09T09:11:55.845Z,7.13
2019-03-09T09:14:27.164Z,3.40
2019-03-09T09:16:58.266Z,3.33
2019-03-09T09:19:29.317Z,2.90
2019-03-09T09:22:00.477Z,2.60
2019-03-09T09:24:31.681Z,2.80
2019-03-09T09:27:02.809Z,3.97
2019-03-09T09:29:34.240Z,2.57
2019-03-09T09:32:05.755Z,2.83
2019-03-09T09:34:37.079Z,3.20
2019-03-09T09:37:08.329Z,3.23
2019-03-09T09:39:39.484Z,2.90
2019-03-09T09:42:10.897Z,3.30
2019-03-09T09:44:42.077Z,3.00
2019-03-09T09:47:13.611Z,3.03
2019-03-09T09:49:45.552Z,3.30
2019-03-09T09:52:17.004Z,2.80
2019-03-09T09:54:48.520Z,3.37
2019-03-09T09:57:19.630Z,3.30
2019-03-09T09:59:50.858Z,2.80
2019-03-09T10:02:21.897Z,3.20
2019-03-09T10:04:53.006Z,2.97
2019-03-09T10:07:24.002Z,3.67
2019-03-09T10:09:55.034Z,3.27
2019-03-09T10:12:26.054Z,3.17
2019-03-09T10:14:56.988Z,3.20
2019-03-09T10:17:28.322Z,3.10
2019-03-09T10:19:59.441Z,3.27
2019-03-09T10:22:30.487Z,3.90
2019-03-09T10:25:01.424Z,2.90
2019-03-09T10:27:33.487Z,3.33
2019-03-09T10:30:04.903Z,3.17
2019-03-09T10:32:35.906Z,3.47
2019-03-09T10:35:07.253Z,4.33
2019-03-09T10:37:38.212Z,3.07
2019-03-09T10:40:09.573Z,3.67
2019-03-09T10:42:41.527Z,4.03
2019-03-09T10:45:12.881Z,2.97
2019-03-09T10:47:44.804Z,3.73
2019-03-09T10:50:15.904Z,3.20
2019-03-09T10:52:47.024Z,2.77
2019-03-09T10:55:19.744Z,2.83
2019-03-09T10:57:50.966Z,2.57
2019-03-09T11:00:24.719Z,3.07
2019-03-09T11:02:56.261Z,2.70
2019-03-09T11:05:27.628Z,2.60
2019-03-09T11:07:58.850Z,3.10
2019-03-09T11:10:30.355Z,2.57
2019-03-09T11:13:01.760Z,3.07
2019-03-09T11:15:33.464Z,3.67
2019-03-09T11:18:04.483Z,3.63
2019-03-09T11:20:35.624Z,3.53
2019-03-09T11:23:06.664Z,2.87
2019-03-09T11:25:37.883Z,3.07
2019-03-09T11:28:10.838Z,3.07
2019-03-09T11:30:42.379Z,4.77
2019-03-09T11:33:13.648Z,5.20
2019-03-09T11:35:44.916Z,3.10
2019-03-09T11:38:16.291Z,3.47
2019-03-09T11:40:57.037Z,3.70
2019-03-09T11:43:20.275Z,3.73
2019-03-09T11:45:51.400Z,3.23
2019-03-09T11:48:22.592Z,3.67
2019-03-09T11:50:54.026Z,4.50
2019-03-09T11:53:25.515Z,3.47
2019-03-09T11:55:56.857Z,3.90
2019-03-09T11:58:27.807Z,3.83
2019-03-09T12:00:59.086Z,3.53
2019-03-09T12:03:30.365Z,4.43
2019-03-09T12:06:01.615Z,4.10
2019-03-09T12:08:33.088Z,3.77
2019-03-09T12:11:04.320Z,3.63
2019-03-09T12:13:35.890Z,3.37
2019-03-09T12:16:08.149Z,3.40
2019-03-09T12:18:39.498Z,3.37
2019-03-09T12:21:10.358Z,3.97
2019-03-09T12:23:41.848Z,3.43
2019-03-09T12:26:12.885Z,3.80
2019-03-09T12:28:44.308Z,4.30
2019-03-09T12:31:15.724Z,5.23
2019-03-09T12:33:46.779Z,3.90
2019-03-09T12:36:18.013Z,3.60
2019-03-09T12:38:48.979Z,3.13
2019-03-09T12:41:20.210Z,3.70
2019-03-09T12:43:51.202Z,8.30
2019-03-09T12:46:22.260Z,3.63
2019-03-09T12:48:53.264Z,4.20
2019-03-09T12:51:24.287Z,3.20
2019-03-09T12:53:55.825Z,3.33
2019-03-09T12:56:27.056Z,3.13
2019-03-09T12:58:58.122Z,3.53
2019-03-09T13:01:29.088Z,4.67
2019-03-09T13:04:00.243Z,3.70
2019-03-09T13:06:31.346Z,3.17
2019-03-09T13:09:02.547Z,3.60
2019-03-09T13:11:35.023Z,3.00
2019-03-09T13:14:06.505Z,3.50
2019-03-09T13:16:37.645Z,3.30
2019-03-09T13:19:09.008Z,3.30
2019-03-09T13:21:40.345Z,3.93
2019-03-09T13:24:11.666Z,4.13
2019-03-09T13:26:43.162Z,3.40
2019-03-09T13:29:14.130Z,3.70
2019-03-09T13:31:44.053Z,4.20
2019-03-09T13:34:15.113Z,4.23
2019-03-09T13:36:46.434Z,3.40
2019-03-09T13:39:17.746Z,3.40
2019-03-09T13:41:48.714Z,3.33
2019-03-09T13:44:19.686Z,5.20
2019-03-09T13:46:50.965Z,10.67
2019-03-09T13:49:22.172Z,7.83
2019-03-09T13:51:53.589Z,3.17
2019-03-09T13:54:23.193Z,3.50
2019-03-09T13:56:55.396Z,3.40
2019-03-09T13:59:27.447Z,2.83
2019-03-09T14:01:58.652Z,3.40
2019-03-09T14:04:29.897Z,3.60
2019-03-09T14:07:01.273Z,3.33
2019-03-09T14:09:32.721Z,2.70
2019-03-09T14:12:03.856Z,3.00
2019-03-09T14:14:35.263Z,3.10
2019-03-09T14:17:06.390Z,3.30
2019-03-09T14:19:37.556Z,3.60
2019-03-09T14:22:09.010Z,3.97
2019-03-09T14:24:40.440Z,3.27
2019-03-09T14:27:11.723Z,2.90
2019-03-09T14:29:42.843Z,2.70
2019-03-09T14:32:14.331Z,3.40
2019-03-09T14:34:45.724Z,3.80
2019-03-09T14:37:17.084Z,3.20
2019-03-09T14:39:48.507Z,3.20
2019-03-09T14:42:19.625Z,4.53
2019-03-09T14:44:50.691Z,3.43
2019-03-09T14:47:21.829Z,3.27
2019-03-09T14:49:52.986Z,3.80
2019-03-09T14:52:24.368Z,3.40
2019-03-09T14:54:55.612Z,3.33
2019-03-09T14:57:26.631Z,3.23
2019-03-09T14:59:57.535Z,3.57
2019-03-09T15:02:28.691Z,8.00
2019-03-09T15:04:59.714Z,4.10
2019-03-09T15:07:30.820Z,3.90
2019-03-09T15:10:01.789Z,5.53
2019-03-09T15:12:33.039Z,8.33
2019-03-09T15:15:04.153Z,2.83
2019-03-09T15:17:35.182Z,3.87
2019-03-09T15:20:06.822Z,3.10
2019-03-09T15:22:38.039Z,4.10
2019-03-09T15:25:10.072Z,4.30
2019-03-09T15:27:41.034Z,4.80
2019-03-09T15:30:13.592Z,4.37
2019-03-09T15:32:44.649Z,3.80
2019-03-09T15:35:16.953Z,4.03
2019-03-09T15:37:48.450Z,3.50
2019-03-09T15:40:21.434Z,4.27
2019-03-09T15:42:52.870Z,4.63
2019-03-09T15:45:25.027Z,3.33
2019-03-09T15:47:56.270Z,3.77
2019-03-09T15:50:27.359Z,5.37
2019-03-09T15:52:58.505Z,4.37
2019-03-09T15:55:29.587Z,3.63
2019-03-09T15:58:00.962Z,3.90
2019-03-09T16:00:31.966Z,17.43
2019-03-09T16:03:03.321Z,7.67
2019-03-09T16:05:34.714Z,11.57
2019-03-09T16:08:06.177Z,8.67
2019-03-09T16:10:37.687Z,4.50
2019-03-09T16:13:09.068Z,7.17
2019-03-09T16:15:40.381Z,4.97
2019-03-09T16:18:11.331Z,8.43
2019-03-09T16:20:42.591Z,5.50
2019-03-09T16:23:13.721Z,7.13
2019-03-09T16:25:44.905Z,4.27
2019-03-09T16:28:16.319Z,7.30
2019-03-09T16:30:47.752Z,6.23
2019-03-09T16:33:19.154Z,4.27
2019-03-09T16:35:50.439Z,4.63
2019-03-09T16:38:21.498Z,4.60
2019-03-09T16:40:52.858Z,3.53
2019-03-09T16:43:24.379Z,4.43
2019-03-09T16:45:55.496Z,4.20
2019-03-09T16:48:27.035Z,3.60
2019-03-09T16:50:58.312Z,4.00
2019-03-09T16:53:29.601Z,3.57
2019-03-09T16:56:01.025Z,4.63
2019-03-09T16:58:32.370Z,5.53
2019-03-09T17:01:03.717Z,7.00
2019-03-09T17:03:34.732Z,5.03
2019-03-09T17:06:06.015Z,5.07
2019-03-09T17:08:37.224Z,4.50
2019-03-09T17:11:08.717Z,5.60
2019-03-09T17:13:40.054Z,6.60
2019-03-09T17:16:11.479Z,4.67
2019-03-09T17:18:42.834Z,8.03
2019-03-09T17:21:15.495Z,5.63
2019-03-09T17:23:47.774Z,4.60
2019-03-09T17:26:18.937Z,5.90
2019-03-09T17:28:50.564Z,6.23
2019-03-09T17:31:24.996Z,6.73
2019-03-09T17:33:56.572Z,9.43
2019-03-09T17:36:27.839Z,6.30
2019-03-09T17:38:59.065Z,6.27
2019-03-09T17:41:30.281Z,5.10
2019-03-09T17:44:01.753Z,5.33
2019-03-09T17:46:32.911Z,5.80
2019-03-09T17:49:04.194Z,5.33
2019-03-09T17:51:35.456Z,6.03
2019-03-09T17:54:06.869Z,6.33
2019-03-09T17:56:37.822Z,6.30
2019-03-09T17:59:09.046Z,6.40
2019-03-09T18:01:40.430Z,6.13
2019-03-09T18:04:11.613Z,6.00
2019-03-09T18:06:43.019Z,5.83
2019-03-09T18:09:14.267Z,6.10
2019-03-09T18:11:45.483Z,6.43
2019-03-09T18:14:16.695Z,6.63
2019-03-09T18:16:52.655Z,7.03
2019-03-09T18:19:20.722Z,8.07
2019-03-09T18:21:51.827Z,7.67
2019-03-09T18:24:23.250Z,8.30
2019-03-09T18:26:54.583Z,7.53
2019-03-09T18:29:26.882Z,8.30
2019-03-09T18:31:58.207Z,19.73
2019-03-09T18:34:29.635Z,8.40
2019-03-09T18:37:00.989Z,7.83
2019-03-09T18:39:32.290Z,6.90
2019-03-09T18:42:03.494Z,6.90
2019-03-09T18:44:34.939Z,6.87
2019-03-09T18:47:06.233Z,6.57
2019-03-09T18:49:37.418Z,7.43
2019-03-09T18:52:08.603Z,6.97
2019-03-09T18:54:39.909Z,7.17
2019-03-09T18:57:11.157Z,7.07
2019-03-09T18:59:43.268Z,6.53
2019-03-09T19:02:14.487Z,7.20
2019-03-09T19:04:45.668Z,6.90
2019-03-09T19:07:16.848Z,7.30
2019-03-09T19:09:48.199Z,7.40
2019-03-09T19:12:19.440Z,8.07
2019-03-09T19:14:50.441Z,6.93
2019-03-09T19:17:21.576Z,6.53
2019-03-09T19:19:52.851Z,6.80
2019-03-09T19:22:24.139Z,6.27
2019-03-09T19:24:55.140Z,6.87
2019-03-09T19:27:26.260Z,9.93
2019-03-09T19:29:57.589Z,10.50
2019-03-09T19:32:28.741Z,11.73
2019-03-09T19:35:00.011Z,11.20
2019-03-09T19:37:31.011Z,10.93
2019-03-09T19:40:02.114Z,11.30
2019-03-09T19:42:34.026Z,12.37
2019-03-09T19:45:05.258Z,10.73
2019-03-09T19:47:36.227Z,12.00
2019-03-09T19:50:09.022Z,11.50
2019-03-09T19:52:40.178Z,9.77
2019-03-09T19:55:11.662Z,10.23
2019-03-09T19:57:42.730Z,10.33
2019-03-09T20:00:14.714Z,10.13
2019-03-09T20:02:45.717Z,10.43
2019-03-09T20:05:17.021Z,8.90
2019-03-09T20:07:47.958Z,9.10
2019-03-09T20:10:19.293Z,10.13
2019-03-09T20:12:50.502Z,14.40
2019-03-09T20:15:21.792Z,14.87
2019-03-09T20:17:52.937Z,10.73
2019-03-09T20:20:24.171Z,10.97
2019-03-09T20:22:55.393Z,10.73
2019-03-09T20:25:28.456Z,9.73
2019-03-09T20:27:58.956Z,8.47
2019-03-09T20:30:29.992Z,9.77
2019-03-09T20:33:02.047Z,8.83
2019-03-09T20:35:33.339Z,8.93
2019-03-09T20:38:04.817Z,8.37
2019-03-09T20:40:36.136Z,8.70
2019-03-09T20:43:07.241Z,8.67
2019-03-09T20:45:38.386Z,8.00
2019-03-09T20:48:10.020Z,8.00
2019-03-09T20:50:41.138Z,8.37
2019-03-09T20:53:13.215Z,7.90
2019-03-09T20:55:44.232Z,7.63
2019-03-09T20:58:15.154Z,8.57
2019-03-09T21:00:46.433Z,9.00
2019-03-09T21:03:17.549Z,8.77
2019-03-09T21:05:49.089Z,7.87
2019-03-09T21:08:19.998Z,8.27
2019-03-09T21:10:51.105Z,8.07
2019-03-09T21:13:22.194Z,8.00
2019-03-09T21:15:53.451Z,8.27
2019-03-09T21:18:24.551Z,7.57
2019-03-09T21:20:55.688Z,8.50
2019-03-09T21:23:26.617Z,10.07
2019-03-09T21:25:57.527Z,10.30
2019-03-09T21:28:28.841Z,10.63
2019-03-09T21:31:00.005Z,10.90
2019-03-09T21:33:31.341Z,10.40
2019-03-09T21:36:02.612Z,10.63
2019-03-09T21:38:33.773Z,10.53
2019-03-09T21:41:04.992Z,14.33
2019-03-09T21:43:36.204Z,10.70
2019-03-09T21:46:08.519Z,12.57
2019-03-09T21:48:39.705Z,10.77
2019-03-09T21:51:10.900Z,10.97
2019-03-09T21:53:42.503Z,21.35
2019-03-09T21:56:13.833Z,10.60
2019-03-09T21:58:45.617Z,9.20
2019-03-09T22:01:17.175Z,10.08
2019-03-09T22:03:48.457Z,8.68
2019-03-09T22:06:19.598Z,8.63
2019-03-09T22:08:50.981Z,7.50
2019-03-09T22:11:22.254Z,7.43
2019-03-09T22:13:53.474Z,7.53
2019-03-09T22:16:24.767Z,7.07
2019-03-09T22:18:56.086Z,8.03
2019-03-09T22:21:27.686Z,8.28
2019-03-09T22:23:58.777Z,9.30
2019-03-09T22:26:30.318Z,11.30
2019-03-09T22:29:01.408Z,12.20
2019-03-09T22:31:32.603Z,10.57
2019-03-09T22:34:03.914Z,10.53
2019-03-09T22:36:35.402Z,10.10
2019-03-09T22:39:07.552Z,8.83
2019-03-09T22:41:39.126Z,9.58
2019-03-09T22:44:10.172Z,7.60
2019-03-09T22:46:41.102Z,7.53
2019-03-09T22:49:12.717Z,8.45
2019-03-09T22:51:43.770Z,8.30
2019-03-09T22:54:14.911Z,7.80
2019-03-09T22:56:46.318Z,7.87
2019-03-09T22:59:17.528Z,7.00
2019-03-09T23:01:48.643Z,5.70
2019-03-09T23:04:19.902Z,6.80
2019-03-09T23:06:51.143Z,6.87
2019-03-09T23:09:22.536Z,5.37
2019-03-09T23:11:53.878Z,5.47
2019-03-09T23:14:25.195Z,4.93
2019-03-09T23:16:56.619Z,5.13
2019-03-09T23:19:27.730Z,4.80
2019-03-09T23:21:59.271Z,6.03
2019-03-09T23:24:30.482Z,4.60
2019-03-09T23:27:01.807Z,5.13
2019-03-09T23:29:32.989Z,13.80
2019-03-09T23:32:04.190Z,5.43
2019-03-09T23:34:35.326Z,9.13
2019-03-09T23:37:06.613Z,5.03
2019-03-09T23:39:38.067Z,6.47
2019-03-09T23:42:09.347Z,5.07
2019-03-09T23:44:40.498Z,4.83
2019-03-09T23:47:11.559Z,4.50
2019-03-09T23:49:42.671Z,4.40
2019-03-09T23:52:13.926Z,5.03
2019-03-09T23:54:45.275Z,6.08
2019-03-09T23:57:17.082Z,8.07
2019-03-09T23:59:48.628Z,8.35
